메인 페이지
METAR-TAF:

METAR-TAF

공항 :

이칼루이트, 누나부트, 캐나다

위도: 63-45N, 경도: 068-33W, 고도: 34m

현재 날씨관측

예보는 14분 전, 10:21시(UTC)에 발표되었습니다.
남동6kt
온도 -9°C
습도 85%
기압 999 hPa
시정: 4.0km
고도 1000ft 상공 흐림
약한눈

METAR: CYFB 151021Z 14006KT 2 1/2SM -SN OVC010 M09/M11 A2951 RMK SN3ST5 SLP999

시각: 05:35 (10:35 UTC)

예보

예보는 4 시간 57분 전, 05:38시(UTC)에 발표되었습니다.
예보 대상 시간: 15일 06시부터 16일 06시까지 (UTC)
여러 방향의 바람 3kt
시정: 10km
고도 1200ft 상공 구름 보통
고도 2500ft 상공 흐림
일시적
15일 06시부터 15일 09시까지 (UTC)
시정: 9.7km
고도 1200ft 상공 구름 많음
고도 3000ft 상공 흐림
약한눈
15일 0900시부터 (UTC)
동남동6kt
시정: 10km
고도 1200ft 상공 구름 보통
고도 2500ft 상공 흐림
약한눈
일시적
15일 09시부터 15일 22시까지 (UTC)
시정: 4.8km
고도 1200ft 상공 흐림
약한눈
15일 2200시부터 (UTC)
여러 방향의 바람 3kt
시정: 10km
고도 1500ft 상공 구름 보통
고도 3000ft 상공 구름 많음

TAF: CYFB 150538Z 1506/1606 VRB03KT P6SM SCT012 OVC025 TEMPO 1506/1509 6SM -SN BKN012 OVC030 FM150900 12006KT P6SM -SN SCT012 OVC025 TEMPO 1509/1522 3SM -SN OVC012 FM152200 VRB03KT P6SM SCT015 BKN030 RMK NXT FCST BY 151200Z

4,000개 이상의 공항 관측 자료 및 예보 (METAR 및 TAF 보고).

지도상에서 검색 가능한 기상관측소가 노란 점과 빨간 점으로 표시되어 있습니다.

기상관측소 명을 보려면 표시 위로 마우스를 이동하세요.

날씨 관측과 예보를 보려면 클릭하세요.

지도 변경 : 확대하려면 엑스 표시가 있는 녹색 버튼, 축소하려면 빼기 표시가 있는 녹색 버튼, 다음 페이지의 지도를 보려면 녹색 화살표를 클릭하세요.


METAR-TAF: